sensor_id;sensor_type;location;lat;lon;timestamp;pressure;altitude;pressure_sealevel;temperature;humidity
80335;BME280;69653;52.674;13.574;2023-07-30T00:00:37;99980.66;;;15.88;97.35
80335;BME280;69653;52.674;13.574;2023-07-30T00:03:03;99976.16;;;15.83;97.43
80335;BME280;69653;52.674;13.574;2023-07-30T00:05:28;99995.69;;;15.90;97.08
80335;BME280;69653;52.674;13.574;2023-07-30T00:07:53;99992.59;;;15.80;97.09
80335;BME280;69653;52.674;13.574;2023-07-30T00:10:19;100005.25;;;15.81;97.15
80335;BME280;69653;52.674;13.574;2023-07-30T00:12:45;99993.91;;;15.70;96.99
80335;BME280;69653;52.674;13.574;2023-07-30T00:15:10;99989.66;;;15.73;97.76
80335;BME280;69653;52.674;13.574;2023-07-30T00:17:36;100021.09;;;15.84;97.11
80335;BME280;69653;52.674;13.574;2023-07-30T00:20:02;100018.66;;;15.82;97.66
80335;BME280;69653;52.674;13.574;2023-07-30T00:22:27;100008.72;;;15.78;97.14
80335;BME280;69653;52.674;13.574;2023-07-30T00:24:53;100003.97;;;15.78;97.73
80335;BME280;69653;52.674;13.574;2023-07-30T00:27:18;100015.81;;;15.79;97.28
80335;BME280;69653;52.674;13.574;2023-07-30T00:29:46;100006.19;;;15.73;96.84
80335;BME280;69653;52.674;13.574;2023-07-30T00:32:11;99998.63;;;15.70;96.00
80335;BME280;69653;52.674;13.574;2023-07-30T00:34:40;100022.59;;;15.81;95.74
80335;BME280;69653;52.674;13.574;2023-07-30T00:37:06;100008.47;;;15.71;95.03
80335;BME280;69653;52.674;13.574;2023-07-30T00:39:31;99991.63;;;15.60;94.98
80335;BME280;69653;52.674;13.574;2023-07-30T00:41:56;99989.78;;;15.64;94.77
80335;BME280;69653;52.674;13.574;2023-07-30T00:44:22;99995.19;;;15.61;94.92
80335;BME280;69653;52.674;13.574;2023-07-30T00:46:47;100002.84;;;15.67;94.83
80335;BME280;69653;52.674;13.574;2023-07-30T00:49:13;99994.75;;;15.59;94.48
80335;BME280;69653;52.674;13.574;2023-07-30T00:51:38;100010.91;;;15.72;94.79
80335;BME280;69653;52.674;13.574;2023-07-30T00:54:03;99978.31;;;15.50;94.61
80335;BME280;69653;52.674;13.574;2023-07-30T00:56:29;99967.88;;;15.43;94.03
80335;BME280;69653;52.674;13.574;2023-07-30T00:58:55;99978.41;;;15.41;94.34
80335;BME280;69653;52.674;13.574;2023-07-30T01:01:21;99973.50;;;15.35;94.83
80335;BME280;69653;52.674;13.574;2023-07-30T01:03:46;99991.38;;;15.41;94.53
80335;BME280;69653;52.674;13.574;2023-07-30T01:06:12;99981.31;;;15.33;95.14
80335;BME280;69653;52.674;13.574;2023-07-30T01:08:37;100014.44;;;15.48;95.03
80335;BME280;69653;52.674;13.574;2023-07-30T01:11:04;99972.84;;;15.26;95.20
80335;BME280;69653;52.674;13.574;2023-07-30T01:13:31;99962.75;;;15.18;94.81
80335;BME280;69653;52.674;13.574;2023-07-30T01:15:58;99976.63;;;15.21;95.15
80335;BME280;69653;52.674;13.574;2023-07-30T01:18:23;99986.34;;;15.19;95.13
80335;BME280;69653;52.674;13.574;2023-07-30T01:20:53;99981.91;;;15.14;94.95
80335;BME280;69653;52.674;13.574;2023-07-30T01:23:18;99975.38;;;15.07;95.17
80335;BME280;69653;52.674;13.574;2023-07-30T01:25:44;99960.78;;;14.94;95.50
80335;BME280;69653;52.674;13.574;2023-07-30T01:28:12;100006.00;;;15.17;95.65
80335;BME280;69653;52.674;13.574;2023-07-30T01:30:41;99996.59;;;15.06;95.77
80335;BME280;69653;52.674;13.574;2023-07-30T01:33:09;100013.56;;;15.08;95.76
80335;BME280;69653;52.674;13.574;2023-07-30T01:35:36;100018.25;;;14.95;96.05
80335;BME280;69653;52.674;13.574;2023-07-30T01:38:02;99999.78;;;14.84;96.06
80335;BME280;69653;52.674;13.574;2023-07-30T01:40:31;100008.50;;;14.86;96.15
80335;BME280;69653;52.674;13.574;2023-07-30T01:42:56;99995.63;;;14.66;96.23
80335;BME280;69653;52.674;13.574;2023-07-30T01:45:21;100004.34;;;14.68;96.67
80335;BME280;69653;52.674;13.574;2023-07-30T01:47:47;100040.50;;;14.90;96.61
80335;BME280;69653;52.674;13.574;2023-07-30T01:50:12;100016.84;;;14.65;96.85
80335;BME280;69653;52.674;13.574;2023-07-30T01:52:38;100052.53;;;14.86;96.59
80335;BME280;69653;52.674;13.574;2023-07-30T01:55:03;100053.56;;;14.81;96.82
80335;BME280;69653;52.674;13.574;2023-07-30T01:57:28;100018.66;;;14.61;96.22
80335;BME280;69653;52.674;13.574;2023-07-30T01:59:54;100012.34;;;14.61;96.80
80335;BME280;69653;52.674;13.574;2023-07-30T02:02:19;100013.47;;;14.60;96.62
80335;BME280;69653;52.674;13.574;2023-07-30T02:04:44;100016.47;;;14.54;96.38
80335;BME280;69653;52.674;13.574;2023-07-30T02:07:10;100053.66;;;14.73;96.56
80335;BME280;69653;52.674;13.574;2023-07-30T02:09:35;100024.47;;;14.47;97.05
80335;BME280;69653;52.674;13.574;2023-07-30T02:12:00;100012.41;;;14.40;96.87
80335;BME280;69653;52.674;13.574;2023-07-30T02:14:26;100018.69;;;14.40;96.92
80335;BME280;69653;52.674;13.574;2023-07-30T02:16:51;100005.19;;;14.35;96.84
80335;BME280;69653;52.674;13.574;2023-07-30T02:19:16;100037.56;;;14.50;96.82
80335;BME280;69653;52.674;13.574;2023-07-30T02:21:42;100017.97;;;14.31;97.04
80335;BME280;69653;52.674;13.574;2023-07-30T02:24:09;100005.84;;;14.32;97.06
80335;BME280;69653;52.674;13.574;2023-07-30T02:26:36;100044.31;;;14.53;97.41
80335;BME280;69653;52.674;13.574;2023-07-30T02:29:02;100040.97;;;14.47;97.66
80335;BME280;69653;52.674;13.574;2023-07-30T02:31:27;100019.59;;;14.32;97.18
80335;BME280;69653;52.674;13.574;2023-07-30T02:33:52;100010.28;;;14.25;96.91
80335;BME280;69653;52.674;13.574;2023-07-30T02:36:18;100013.84;;;14.25;97.37
80335;BME280;69653;52.674;13.574;2023-07-30T02:38:43;100028.03;;;14.27;97.16
80335;BME280;69653;52.674;13.574;2023-07-30T02:41:08;100032.03;;;14.30;97.61
80335;BME280;69653;52.674;13.574;2023-07-30T02:43:34;100011.97;;;14.17;97.87
80335;BME280;69653;52.674;13.574;2023-07-30T02:45:59;100028.16;;;14.31;97.88
80335;BME280;69653;52.674;13.574;2023-07-30T02:48:24;100020.66;;;14.19;97.89
80335;BME280;69653;52.674;13.574;2023-07-30T02:50:50;100021.94;;;14.22;97.99
80335;BME280;69653;52.674;13.574;2023-07-30T02:53:15;100027.91;;;14.24;97.89
80335;BME280;69653;52.674;13.574;2023-07-30T02:55:40;100052.38;;;14.37;97.82
80335;BME280;69653;52.674;13.574;2023-07-30T02:58:06;100046.72;;;14.34;97.98
80335;BME280;69653;52.674;13.574;2023-07-30T03:00:31;100035.53;;;14.18;97.98
80335;BME280;69653;52.674;13.574;2023-07-30T03:02:56;100022.34;;;14.12;97.94
80335;BME280;69653;52.674;13.574;2023-07-30T03:05:22;100052.97;;;14.22;98.18
80335;BME280;69653;52.674;13.574;2023-07-30T03:07:47;100069.38;;;14.39;98.63
80335;BME280;69653;52.674;13.574;2023-07-30T03:10:12;100055.34;;;14.32;98.59
80335;BME280;69653;52.674;13.574;2023-07-30T03:12:38;100041.34;;;14.25;98.79
80335;BME280;69653;52.674;13.574;2023-07-30T03:15:03;100056.56;;;14.43;98.72
80335;BME280;69653;52.674;13.574;2023-07-30T03:17:29;100051.25;;;14.38;98.50
80335;BME280;69653;52.674;13.574;2023-07-30T03:19:54;100054.75;;;14.47;98.36
80335;BME280;69653;52.674;13.574;2023-07-30T03:22:19;100059.56;;;14.50;98.35
80335;BME280;69653;52.674;13.574;2023-07-30T03:24:49;100050.56;;;14.41;97.97
80335;BME280;69653;52.674;13.574;2023-07-30T03:27:14;100050.56;;;14.41;97.77
80335;BME280;69653;52.674;13.574;2023-07-30T03:29:39;100059.44;;;14.47;97.89
80335;BME280;69653;52.674;13.574;2023-07-30T03:32:05;100049.75;;;14.41;98.14
80335;BME280;69653;52.674;13.574;2023-07-30T03:34:31;100040.25;;;14.38;98.21
80335;BME280;69653;52.674;13.574;2023-07-30T03:36:56;100044.13;;;14.37;98.00
80335;BME280;69653;52.674;13.574;2023-07-30T03:39:21;100047.69;;;14.38;98.00
80335;BME280;69653;52.674;13.574;2023-07-30T03:41:47;100050.94;;;14.40;97.83
80335;BME280;69653;52.674;13.574;2023-07-30T03:44:12;100023.66;;;14.26;97.86
80335;BME280;69653;52.674;13.574;2023-07-30T03:46:37;100051.25;;;14.38;98.01
80335;BME280;69653;52.674;13.574;2023-07-30T03:49:03;100053.56;;;14.36;97.86
80335;BME280;69653;52.674;13.574;2023-07-30T03:51:28;100050.97;;;14.31;97.62
80335;BME280;69653;52.674;13.574;2023-07-30T03:53:53;100035.03;;;14.25;97.61
80335;BME280;69653;52.674;13.574;2023-07-30T03:56:19;100058.69;;;14.38;97.68
80335;BME280;69653;52.674;13.574;2023-07-30T03:58:44;100055.81;;;14.34;97.65
80335;BME280;69653;52.674;13.574;2023-07-30T04:01:09;100061.44;;;14.38;97.80
80335;BME280;69653;52.674;13.574;2023-07-30T04:03:34;100089.25;;;14.57;97.83
80335;BME280;69653;52.674;13.574;2023-07-30T04:06:00;100067.34;;;14.48;97.75
80335;BME280;69653;52.674;13.574;2023-07-30T04:08:25;100084.91;;;14.56;98.00
80335;BME280;69653;52.674;13.574;2023-07-30T04:10:51;100053.19;;;14.38;98.00
80335;BME280;69653;52.674;13.574;2023-07-30T04:13:16;100045.75;;;14.38;97.56
80335;BME280;69653;52.674;13.574;2023-07-30T04:15:41;100061.19;;;14.51;97.81
80335;BME280;69653;52.674;13.574;2023-07-30T04:18:07;100050.81;;;14.48;98.06
80335;BME280;69653;52.674;13.574;2023-07-30T04:20:32;100067.38;;;14.61;97.66
80335;BME280;69653;52.674;13.574;2023-07-30T04:22:57;100075.19;;;14.71;97.72
80335;BME280;69653;52.674;13.574;2023-07-30T04:25:23;100063.78;;;14.81;97.55
80335;BME280;69653;52.674;13.574;2023-07-30T04:27:48;100082.06;;;15.10;96.66
80335;BME280;69653;52.674;13.574;2023-07-30T04:30:13;100064.97;;;15.16;95.72
80335;BME280;69653;52.674;13.574;2023-07-30T04:32:38;100085.31;;;15.36;95.57
80335;BME280;69653;52.674;13.574;2023-07-30T04:35:04;100106.69;;;15.63;94.77
80335;BME280;69653;52.674;13.574;2023-07-30T04:37:29;100070.25;;;15.45;94.62
80335;BME280;69653;52.674;13.574;2023-07-30T04:39:56;100103.00;;;15.71;94.43
80335;BME280;69653;52.674;13.574;2023-07-30T04:42:21;100076.81;;;15.53;94.35
80335;BME280;69653;52.674;13.574;2023-07-30T04:44:46;100081.31;;;15.58;94.38
80335;BME280;69653;52.674;13.574;2023-07-30T04:47:11;100085.44;;;15.64;93.89
80335;BME280;69653;52.674;13.574;2023-07-30T04:49:37;100088.16;;;15.88;93.18
80335;BME280;69653;52.674;13.574;2023-07-30T04:52:08;100082.84;;;16.07;91.65
80335;BME280;69653;52.674;13.574;2023-07-30T04:54:33;100109.53;;;16.31;90.82
80335;BME280;69653;52.674;13.574;2023-07-30T04:57:02;100072.63;;;16.08;90.86
80335;BME280;69653;52.674;13.574;2023-07-30T04:59:27;100082.66;;;16.28;90.39
80335;BME280;69653;52.674;13.574;2023-07-30T05:01:53;100092.41;;;16.37;89.78
80335;BME280;69653;52.674;13.574;2023-07-30T05:04:19;100091.44;;;16.58;89.67
80335;BME280;69653;52.674;13.574;2023-07-30T05:06:44;100086.09;;;16.92;87.78
80335;BME280;69653;52.674;13.574;2023-07-30T05:09:10;100081.44;;;16.81;87.51
80335;BME280;69653;52.674;13.574;2023-07-30T05:11:38;100115.78;;;17.11;87.38
80335;BME280;69653;52.674;13.574;2023-07-30T05:14:06;100102.25;;;17.37;86.08
80335;BME280;69653;52.674;13.574;2023-07-30T05:16:32;100091.16;;;17.53;84.64
80335;BME280;69653;52.674;13.574;2023-07-30T05:18:57;100088.09;;;17.89;83.34
80335;BME280;69653;52.674;13.574;2023-07-30T05:21:22;100125.59;;;18.22;82.20
80335;BME280;69653;52.674;13.574;2023-07-30T05:23:48;100086.53;;;18.08;82.35
80335;BME280;69653;52.674;13.574;2023-07-30T05:26:13;100083.56;;;18.35;81.28
80335;BME280;69653;52.674;13.574;2023-07-30T05:28:38;100095.25;;;18.64;79.80
80335;BME280;69653;52.674;13.574;2023-07-30T05:31:04;100082.09;;;18.80;78.77
80335;BME280;69653;52.674;13.574;2023-07-30T05:33:29;100086.16;;;19.05;77.35
80335;BME280;69653;52.674;13.574;2023-07-30T05:35:55;100083.50;;;19.35;76.76
80335;BME280;69653;52.674;13.574;2023-07-30T05:38:20;100094.25;;;19.63;75.75
80335;BME280;69653;52.674;13.574;2023-07-30T05:40:45;100076.66;;;19.78;74.61
80335;BME280;69653;52.674;13.574;2023-07-30T05:43:11;100085.47;;;19.57;74.86
80335;BME280;69653;52.674;13.574;2023-07-30T05:45:36;100093.78;;;19.34;75.99
80335;BME280;69653;52.674;13.574;2023-07-30T05:48:01;100083.78;;;19.07;76.49
80335;BME280;69653;52.674;13.574;2023-07-30T05:50:27;100088.94;;;18.86;77.81
80335;BME280;69653;52.674;13.574;2023-07-30T05:52:52;100093.16;;;18.80;77.74
80335;BME280;69653;52.674;13.574;2023-07-30T05:55:17;100093.28;;;18.64;78.97
80335;BME280;69653;52.674;13.574;2023-07-30T05:57:43;100089.13;;;18.55;78.48
80335;BME280;69653;52.674;13.574;2023-07-30T06:00:08;100072.94;;;18.37;79.04
80335;BME280;69653;52.674;13.574;2023-07-30T06:02:34;100073.66;;;18.34;79.18
80335;BME280;69653;52.674;13.574;2023-07-30T06:04:59;100100.94;;;18.52;79.67
80335;BME280;69653;52.674;13.574;2023-07-30T06:07:24;100091.44;;;18.33;80.33
80335;BME280;69653;52.674;13.574;2023-07-30T06:09:50;100097.31;;;18.32;80.68
80335;BME280;69653;52.674;13.574;2023-07-30T06:12:15;100091.56;;;18.21;80.35
80335;BME280;69653;52.674;13.574;2023-07-30T06:14:40;100094.47;;;18.28;80.64
80335;BME280;69653;52.674;13.574;2023-07-30T06:17:06;100103.25;;;18.50;80.26
80335;BME280;69653;52.674;13.574;2023-07-30T06:19:31;100088.59;;;18.49;79.88
80335;BME280;69653;52.674;13.574;2023-07-30T06:21:57;100094.94;;;18.50;79.48
80335;BME280;69653;52.674;13.574;2023-07-30T06:24:22;100106.69;;;18.62;79.41
80335;BME280;69653;52.674;13.574;2023-07-30T06:26:47;100114.91;;;18.78;78.65
80335;BME280;69653;52.674;13.574;2023-07-30T06:29:13;100097.94;;;18.79;78.37
80335;BME280;69653;52.674;13.574;2023-07-30T06:31:38;100093.06;;;18.96;76.89
80335;BME280;69653;52.674;13.574;2023-07-30T06:34:03;100093.56;;;18.78;77.12
80335;BME280;69653;52.674;13.574;2023-07-30T06:36:29;100084.00;;;18.76;77.24
80335;BME280;69653;52.674;13.574;2023-07-30T06:38:54;100086.41;;;18.77;76.84
80335;BME280;69653;52.674;13.574;2023-07-30T06:41:20;100096.09;;;18.87;77.05
80335;BME280;69653;52.674;13.574;2023-07-30T06:43:46;100106.25;;;19.02;76.29
80335;BME280;69653;52.674;13.574;2023-07-30T06:46:11;100113.66;;;19.17;76.38
80335;BME280;69653;52.674;13.574;2023-07-30T06:48:37;100121.50;;;19.34;76.12
80335;BME280;69653;52.674;13.574;2023-07-30T06:51:06;100111.47;;;19.26;76.35
80335;BME280;69653;52.674;13.574;2023-07-30T06:53:31;100113.47;;;19.29;75.64
80335;BME280;69653;52.674;13.574;2023-07-30T06:55:56;100096.66;;;19.19;75.35
80335;BME280;69653;52.674;13.574;2023-07-30T06:58:22;100122.84;;;19.21;76.21
80335;BME280;69653;52.674;13.574;2023-07-30T07:00:47;100116.06;;;19.19;76.20
80335;BME280;69653;52.674;13.574;2023-07-30T07:03:12;100099.47;;;19.42;74.60
80335;BME280;69653;52.674;13.574;2023-07-30T07:05:37;100105.91;;;19.72;73.82
80335;BME280;69653;52.674;13.574;2023-07-30T07:08:03;100117.97;;;20.09;72.97
80335;BME280;69653;52.674;13.574;2023-07-30T07:10:28;100110.97;;;20.82;70.31
80335;BME280;69653;52.674;13.574;2023-07-30T07:12:53;100099.81;;;20.78;69.28
80335;BME280;69653;52.674;13.574;2023-07-30T07:15:19;100117.56;;;21.07;68.87
80335;BME280;69653;52.674;13.574;2023-07-30T07:17:44;100099.16;;;21.29;67.15
80335;BME280;69653;52.674;13.574;2023-07-30T07:20:09;100104.44;;;21.41;66.95
80335;BME280;69653;52.674;13.574;2023-07-30T07:22:36;100107.16;;;21.89;65.97
80335;BME280;69653;52.674;13.574;2023-07-30T07:25:02;100107.91;;;22.37;63.91
80335;BME280;69653;52.674;13.574;2023-07-30T07:27:27;100095.78;;;23.08;62.17
80335;BME280;69653;52.674;13.574;2023-07-30T07:29:52;100102.59;;;23.14;60.51
80335;BME280;69653;52.674;13.574;2023-07-30T07:32:18;100094.22;;;23.22;60.47
80335;BME280;69653;52.674;13.574;2023-07-30T07:34:48;100105.03;;;23.51;60.24
80335;BME280;69653;52.674;13.574;2023-07-30T07:37:14;100085.09;;;23.53;59.76
80335;BME280;69653;52.674;13.574;2023-07-30T07:39:41;100097.03;;;23.29;59.94
80335;BME280;69653;52.674;13.574;2023-07-30T07:42:06;100095.78;;;23.12;60.27
80335;BME280;69653;52.674;13.574;2023-07-30T07:44:32;100101.81;;;23.35;59.27
80335;BME280;69653;52.674;13.574;2023-07-30T07:46:57;100077.94;;;23.45;59.16
80335;BME280;69653;52.674;13.574;2023-07-30T07:49:22;100098.28;;;23.56;58.58
80335;BME280;69653;52.674;13.574;2023-07-30T07:51:48;100104.63;;;23.53;59.34
80335;BME280;69653;52.674;13.574;2023-07-30T07:54:13;100100.66;;;23.54;59.34
80335;BME280;69653;52.674;13.574;2023-07-30T07:56:39;100096.59;;;23.05;60.36
80335;BME280;69653;52.674;13.574;2023-07-30T07:59:04;100093.78;;;22.95;59.76
80335;BME280;69653;52.674;13.574;2023-07-30T08:01:29;100098.19;;;22.99;60.09
80335;BME280;69653;52.674;13.574;2023-07-30T08:03:55;100109.81;;;23.51;59.29
80335;BME280;69653;52.674;13.574;2023-07-30T08:06:20;100099.47;;;23.48;59.16
80335;BME280;69653;52.674;13.574;2023-07-30T08:08:45;100073.94;;;23.42;58.65
80335;BME280;69653;52.674;13.574;2023-07-30T08:11:11;100086.69;;;23.54;58.89
80335;BME280;69653;52.674;13.574;2023-07-30T08:13:36;100100.66;;;23.57;59.19
80335;BME280;69653;52.674;13.574;2023-07-30T08:16:02;100093.47;;;23.46;59.32
80335;BME280;69653;52.674;13.574;2023-07-30T08:18:27;100087.41;;;23.05;60.60
80335;BME280;69653;52.674;13.574;2023-07-30T08:20:53;100105.69;;;22.78;61.32
80335;BME280;69653;52.674;13.574;2023-07-30T08:23:18;100098.91;;;22.82;61.67
80335;BME280;69653;52.674;13.574;2023-07-30T08:25:44;100102.19;;;23.16;60.41
80335;BME280;69653;52.674;13.574;2023-07-30T08:28:09;100103.78;;;23.28;60.58
80335;BME280;69653;52.674;13.574;2023-07-30T08:30:34;100101.41;;;23.86;58.49
80335;BME280;69653;52.674;13.574;2023-07-30T08:33:00;100111.34;;;24.23;57.97
80335;BME280;69653;52.674;13.574;2023-07-30T08:35:25;100096.94;;;24.35;56.50
80335;BME280;69653;52.674;13.574;2023-07-30T08:37:52;100099.78;;;24.03;57.40
80335;BME280;69653;52.674;13.574;2023-07-30T08:40:17;100104.63;;;23.78;58.62
80335;BME280;69653;52.674;13.574;2023-07-30T08:42:43;100098.97;;;24.13;57.90
80335;BME280;69653;52.674;13.574;2023-07-30T08:45:08;100126.69;;;24.87;55.88
80335;BME280;69653;52.674;13.574;2023-07-30T08:47:39;100106.00;;;25.33;53.84
80335;BME280;69653;52.674;13.574;2023-07-30T08:50:05;100098.59;;;25.08;55.13
80335;BME280;69653;52.674;13.574;2023-07-30T08:52:31;100107.13;;;24.84;55.61
80335;BME280;69653;52.674;13.574;2023-07-30T08:54:58;100127.88;;;24.79;55.97
80335;BME280;69653;52.674;13.574;2023-07-30T08:57:27;100104.69;;;24.93;54.18
80335;BME280;69653;52.674;13.574;2023-07-30T09:00:01;100093.81;;;25.02;53.55
80335;BME280;69653;52.674;13.574;2023-07-30T09:02:37;100124.69;;;25.46;52.90
80335;BME280;69653;52.674;13.574;2023-07-30T09:05:04;100125.50;;;24.85;53.08
80335;BME280;69653;52.674;13.574;2023-07-30T09:07:29;100095.81;;;24.07;53.19
80335;BME280;69653;52.674;13.574;2023-07-30T09:09:55;100098.66;;;23.58;54.81
80335;BME280;69653;52.674;13.574;2023-07-30T09:12:31;100106.19;;;24.00;54.87
80335;BME280;69653;52.674;13.574;2023-07-30T09:14:57;100102.69;;;24.93;52.18
80335;BME280;69653;52.674;13.574;2023-07-30T09:17:22;100097.94;;;25.45;49.03
80335;BME280;69653;52.674;13.574;2023-07-30T09:19:48;100100.41;;;25.84;48.94
80335;BME280;69653;52.674;13.574;2023-07-30T09:22:35;100107.19;;;26.58;46.95
80335;BME280;69653;52.674;13.574;2023-07-30T09:25:04;100112.09;;;26.84;45.96
80335;BME280;69653;52.674;13.574;2023-07-30T09:27:31;100129.41;;;27.10;43.75
80335;BME280;69653;52.674;13.574;2023-07-30T09:29:57;100094.41;;;27.41;41.65
80335;BME280;69653;52.674;13.574;2023-07-30T09:32:30;100117.47;;;27.56;40.54
80335;BME280;69653;52.674;13.574;2023-07-30T09:35:10;100096.47;;;27.37;41.51
80335;BME280;69653;52.674;13.574;2023-07-30T09:37:37;100115.63;;;27.19;43.05
80335;BME280;69653;52.674;13.574;2023-07-30T09:40:08;100138.38;;;26.97;44.29
80335;BME280;69653;52.674;13.574;2023-07-30T09:42:35;100109.44;;;26.40;43.61
80335;BME280;69653;52.674;13.574;2023-07-30T09:45:03;100108.13;;;26.48;43.76
80335;BME280;69653;52.674;13.574;2023-07-30T09:47:30;100102.25;;;26.69;42.70
80335;BME280;69653;52.674;13.574;2023-07-30T09:49:55;100114.00;;;26.61;43.15
80335;BME280;69653;52.674;13.574;2023-07-30T09:52:21;100122.00;;;26.92;41.60
80335;BME280;69653;52.674;13.574;2023-07-30T09:54:48;100119.63;;;27.18;40.50
80335;BME280;69653;52.674;13.574;2023-07-30T09:57:15;100117.22;;;27.20;40.77
80335;BME280;69653;52.674;13.574;2023-07-30T09:59:40;100125.59;;;27.50;40.25
80335;BME280;69653;52.674;13.574;2023-07-30T10:02:08;100118.75;;;27.24;40.98
80335;BME280;69653;52.674;13.574;2023-07-30T10:04:37;100106.44;;;27.41;40.25
80335;BME280;69653;52.674;13.574;2023-07-30T10:07:08;100118.34;;;27.76;40.66
80335;BME280;69653;52.674;13.574;2023-07-30T10:09:41;100116.78;;;28.18;38.24
80335;BME280;69653;52.674;13.574;2023-07-30T10:12:16;100126.03;;;27.95;39.00
80335;BME280;69653;52.674;13.574;2023-07-30T10:14:42;100122.78;;;27.96;38.63
80335;BME280;69653;52.674;13.574;2023-07-30T10:17:10;100121.31;;;27.88;39.57
80335;BME280;69653;52.674;13.574;2023-07-30T10:19:35;100107.88;;;27.26;39.41
80335;BME280;69653;52.674;13.574;2023-07-30T10:24:38;100108.47;;;26.53;40.47
80335;BME280;69653;52.674;13.574;2023-07-30T10:27:08;100118.09;;;26.86;38.58
80335;BME280;69653;52.674;13.574;2023-07-30T10:29:35;100111.63;;;26.89;41.39
80335;BME280;69653;52.674;13.574;2023-07-30T10:32:01;100127.25;;;27.44;40.19
80335;BME280;69653;52.674;13.574;2023-07-30T10:34:43;100097.06;;;27.52;39.39
80335;BME280;69653;52.674;13.574;2023-07-30T10:37:09;100111.19;;;27.94;40.17
80335;BME280;69653;52.674;13.574;2023-07-30T10:39:34;100128.78;;;28.41;38.23
80335;BME280;69653;52.674;13.574;2023-07-30T10:42:00;100117.88;;;28.24;38.20
80335;BME280;69653;52.674;13.574;2023-07-30T10:44:27;100132.63;;;27.35;39.40
80335;BME280;69653;52.674;13.574;2023-07-30T10:46:54;100107.59;;;27.44;39.23
80335;BME280;69653;52.674;13.574;2023-07-30T10:49:20;100113.28;;;27.14;40.42
80335;BME280;69653;52.674;13.574;2023-07-30T10:51:45;100111.63;;;27.43;38.70
80335;BME280;69653;52.674;13.574;2023-07-30T10:54:10;100114.06;;;27.41;40.82
80335;BME280;69653;52.674;13.574;2023-07-30T10:56:37;100108.13;;;27.85;38.06
80335;BME280;69653;52.674;13.574;2023-07-30T10:59:04;100113.84;;;28.02;38.67
80335;BME280;69653;52.674;13.574;2023-07-30T11:01:42;100130.72;;;28.25;38.43
80335;BME280;69653;52.674;13.574;2023-07-30T11:04:16;100112.97;;;28.08;38.05
80335;BME280;69653;52.674;13.574;2023-07-30T11:06:49;100117.28;;;27.89;38.26
80335;BME280;69653;52.674;13.574;2023-07-30T11:09:19;100128.16;;;27.87;38.90
80335;BME280;69653;52.674;13.574;2023-07-30T11:11:48;100104.66;;;27.28;38.92
80335;BME280;69653;52.674;13.574;2023-07-30T11:14:15;100121.44;;;27.58;38.98
80335;BME280;69653;52.674;13.574;2023-07-30T11:16:48;100113.06;;;27.01;40.48
80335;BME280;69653;52.674;13.574;2023-07-30T11:19:13;100118.56;;;26.47;40.99
80335;BME280;69653;52.674;13.574;2023-07-30T11:24:12;100125.41;;;26.02;43.26
80335;BME280;69653;52.674;13.574;2023-07-30T11:26:37;100103.66;;;25.79;44.52
80335;BME280;69653;52.674;13.574;2023-07-30T11:29:17;100108.03;;;25.80;43.58
80335;BME280;69653;52.674;13.574;2023-07-30T11:31:47;100103.22;;;26.22;43.42
80335;BME280;69653;52.674;13.574;2023-07-30T11:34:13;100131.13;;;27.00;42.26
80335;BME280;69653;52.674;13.574;2023-07-30T11:36:40;100085.81;;;27.02;41.03
80335;BME280;69653;52.674;13.574;2023-07-30T11:39:07;100108.97;;;27.32;41.35
80335;BME280;69653;52.674;13.574;2023-07-30T11:41:33;100124.03;;;27.19;41.81
80335;BME280;69653;52.674;13.574;2023-07-30T11:43:58;100090.72;;;26.94;40.79
80335;BME280;69653;52.674;13.574;2023-07-30T11:46:24;100086.66;;;26.98;41.52
80335;BME280;69653;52.674;13.574;2023-07-30T11:48:53;100119.16;;;27.23;40.68
80335;BME280;69653;52.674;13.574;2023-07-30T11:51:19;100112.91;;;27.38;39.47
80335;BME280;69653;52.674;13.574;2023-07-30T11:53:56;100118.81;;;27.44;39.45
80335;BME280;69653;52.674;13.574;2023-07-30T11:56:29;100106.66;;;27.77;38.97
80335;BME280;69653;52.674;13.574;2023-07-30T11:59:01;100110.13;;;27.85;39.91
80335;BME280;69653;52.674;13.574;2023-07-30T12:01:29;100113.81;;;27.82;39.32
80335;BME280;69653;52.674;13.574;2023-07-30T12:03:59;100112.66;;;27.79;39.33
80335;BME280;69653;52.674;13.574;2023-07-30T12:06:37;100119.41;;;28.05;37.93
80335;BME280;69653;52.674;13.574;2023-07-30T12:09:09;100105.66;;;28.11;36.55
80335;BME280;69653;52.674;13.574;2023-07-30T12:11:44;100108.94;;;28.09;35.80
80335;BME280;69653;52.674;13.574;2023-07-30T12:14:09;100107.38;;;28.05;35.97
80335;BME280;69653;52.674;13.574;2023-07-30T12:16:35;100113.00;;;28.05;37.60
80335;BME280;69653;52.674;13.574;2023-07-30T12:19:00;100108.13;;;27.85;37.73
80335;BME280;69653;52.674;13.574;2023-07-30T12:21:25;100113.19;;;27.94;36.88
80335;BME280;69653;52.674;13.574;2023-07-30T12:23:50;100100.91;;;27.84;36.81
80335;BME280;69653;52.674;13.574;2023-07-30T12:26:16;100098.66;;;27.76;36.71
80335;BME280;69653;52.674;13.574;2023-07-30T12:28:41;100099.06;;;27.98;36.08
80335;BME280;69653;52.674;13.574;2023-07-30T12:31:06;100091.19;;;27.89;36.56
80335;BME280;69653;52.674;13.574;2023-07-30T12:33:32;100087.84;;;27.74;36.57
80335;BME280;69653;52.674;13.574;2023-07-30T12:35:57;100099.06;;;27.51;37.56
80335;BME280;69653;52.674;13.574;2023-07-30T12:38:22;100096.22;;;27.55;37.22
80335;BME280;69653;52.674;13.574;2023-07-30T12:40:48;100098.59;;;27.56;37.11